FIMP/MRU METAR and TAF weather

Enter ICAO airport designator
Station Type Date Time Source
FIMP METAR 2022/01/23 13:00 UTC NOAA

FIMP 231300Z 12009KT 9999 VCSH BKN016 30/25 Q1011


Station Type Date Time Source
FIMP Decoded METAR 2022/01/23 13:00 UTC NOAA

Plaisance Mauritius , Mauritius (FIMP) 20-26S 057-40E 57M
Jan 23, 2022 - 08:00 AM EST / 2022.01.23 1300 UTC
Wind: from the ESE (120 degrees) at 10 MPH (9 KT):0
Visibility: greater than 7 mile(s):0
Sky conditions: mostly cloudy
Weather: showers in the vicinity
Temperature: 86 F (30 C)
Heat index: 96.8 F (36.0 C):1
Dew Point: 77 F (25 C)
Relative Humidity: 74%
Pressure (altimeter): 29.85 in. Hg (1011 hPa)
ob: FIMP 231300Z 12009KT 9999 VCSH BKN016 30/25 Q1011
cycle: 13

Station Type Date Time Source
FIMP TAF 2022/01/23 12:33 UTC NOAA

TAF TAF COR FIMP 231100Z 2312/2418 12010KT 9999 BKN016
TEMPO 2412/2418 7000 -SHRA FEW010 BKN014

Example: see airport list